CheckWX is a tool to help pilots better visualize weather data.  It is not intended as a substitute for an official pre-flight weather briefing.

12:04:48 UTC

KVGT TAF
North Las Vegas Airport
Las Vegas, Nevada, USA
KVGT 201125Z 2012/2112 VRB05KT P6SM SKC FM201800 14007KT P6SM SKC FM210100 23007KT P6SM SKC FM210700 32006KT P6SM SKC

Aug-20@
12:00 UTC

Aug-20 @ 12:00 UTC

Aug-20@
18:00 UTC

Aug-20 @ 18:00 UTC

KVGT 201125Z 2012/2112 VRB05KT P6SM SKC
Wind
  • Variable at 5 KTS
Cloud Levels
  • Clear skies

Aug-20@
18:00 UTC

Aug-20 @ 18:00 UTC

Aug-21@
01:00 UTC

Aug-21 @ 01:00 UTC

FM201800 14007KT P6SM SKC

From

From Standard forecast or significant change

Wind
  • 140° at 7 KTS
Cloud Levels
  • Clear skies

Aug-21@
01:00 UTC

Aug-21 @ 01:00 UTC

Aug-21@
07:00 UTC

Aug-21 @ 07:00 UTC

FM210100 23007KT P6SM SKC

From

From Standard forecast or significant change

Wind
  • 230° at 7 KTS
Cloud Levels
  • Clear skies

Aug-21@
07:00 UTC

Aug-21 @ 07:00 UTC

Aug-21@
12:00 UTC

Aug-21 @ 12:00 UTC

FM210700 32006KT P6SM SKC

From

From Standard forecast or significant change

Wind
  • 320° at 6 KTS
Cloud Levels
  • Clear skies